createdAt,value
2019-03-13T00:01:57.536Z,100148.53
2019-03-13T00:04:26.756Z,100153.38
2019-03-13T00:06:55.953Z,100136.27
2019-03-13T00:09:25.259Z,100131.23
2019-03-13T00:11:54.491Z,100128.55
2019-03-13T00:14:23.738Z,100120.64
2019-03-13T00:16:52.920Z,100114.01
2019-03-13T00:19:22.228Z,100108.76
2019-03-13T00:21:51.460Z,100101.23
2019-03-13T00:24:20.688Z,100097.27
2019-03-13T00:26:49.926Z,100093.70
2019-03-13T00:29:19.233Z,100084.09
2019-03-13T00:31:48.503Z,100075.58
2019-03-13T00:34:17.753Z,100077.25
2019-03-13T00:36:46.953Z,100079.61
2019-03-13T00:39:16.155Z,100081.08
2019-03-13T00:41:45.392Z,100072.36
2019-03-13T00:44:14.631Z,100065.32
2019-03-13T00:46:43.908Z,100062.53
2019-03-13T00:49:13.159Z,100053.80
2019-03-13T00:51:42.382Z,100046.66
2019-03-13T00:54:11.592Z,100048.94
2019-03-13T00:56:40.903Z,100043.08
2019-03-13T00:59:10.102Z,100036.34
2019-03-13T01:02:07.255Z,100031.38
2019-03-13T01:04:41.110Z,100024.81
2019-03-13T01:07:11.551Z,100022.02
2019-03-13T01:09:40.768Z,100012.39
2019-03-13T01:12:09.975Z,100013.45
2019-03-13T01:14:39.292Z,100016.61
2019-03-13T01:17:08.793Z,100004.41
2019-03-13T01:19:37.990Z,99994.69
2019-03-13T01:22:07.220Z,99993.57
2019-03-13T01:24:36.399Z,99985.14
2019-03-13T01:27:05.619Z,99977.98
2019-03-13T01:29:35.229Z,99976.39
2019-03-13T01:32:32.765Z,99972.13
2019-03-13T01:35:21.050Z,99969.64
2019-03-13T01:37:50.434Z,99960.48
2019-03-13T01:40:19.831Z,99944.62
2019-03-13T01:42:49.049Z,99944.40
2019-03-13T01:45:18.355Z,99941.51
2019-03-13T01:47:47.564Z,99936.12
2019-03-13T01:50:16.806Z,99924.63
2019-03-13T01:52:45.998Z,99920.52
2019-03-13T01:55:15.206Z,99920.70
2019-03-13T01:57:44.450Z,99919.17
2019-03-13T02:00:14.163Z,99909.44
2019-03-13T02:02:43.373Z,99915.24
2019-03-13T02:05:12.600Z,99905.95
2019-03-13T02:07:41.798Z,99910.39
2019-03-13T02:10:11.058Z,99897.91
2019-03-13T02:12:40.349Z,99894.05
2019-03-13T02:15:10.602Z,99895.50
2019-03-13T02:17:39.800Z,99895.58
2019-03-13T02:20:10.203Z,99882.70
2019-03-13T02:22:39.390Z,99878.03
2019-03-13T02:25:08.797Z,99867.72
2019-03-13T02:27:38.000Z,99869.00
2019-03-13T02:30:08.493Z,99861.27
2019-03-13T02:32:38.047Z,99865.22
2019-03-13T02:35:07.367Z,99854.83
2019-03-13T02:37:38.540Z,99857.41
2019-03-13T02:40:09.086Z,99852.17
2019-03-13T02:42:38.323Z,99848.79
2019-03-13T02:45:09.212Z,99841.06
2019-03-13T02:47:38.896Z,99834.30
2019-03-13T02:50:09.384Z,99831.64
2019-03-13T02:52:38.581Z,99828.66
2019-03-13T02:55:08.252Z,99819.23
2019-03-13T02:57:37.644Z,99813.19
2019-03-13T03:00:10.002Z,99809.73
2019-03-13T03:02:57.303Z,99805.86
2019-03-13T03:05:26.576Z,99804.66
2019-03-13T03:07:55.753Z,99816.66
2019-03-13T03:10:25.041Z,99793.86
2019-03-13T03:12:54.286Z,99782.27
2019-03-13T03:15:23.530Z,99784.84
2019-03-13T03:17:52.805Z,99777.52
2019-03-13T03:20:22.015Z,99768.09
2019-03-13T03:22:51.220Z,99767.28
2019-03-13T03:25:20.825Z,99755.77
2019-03-13T03:27:50.178Z,99750.61
2019-03-13T03:30:21.546Z,99739.17
2019-03-13T03:32:51.209Z,99750.37
2019-03-13T03:35:20.481Z,99733.21
2019-03-13T03:37:49.675Z,99739.81
2019-03-13T03:40:22.356Z,99724.42
2019-03-13T03:42:50.040Z,99720.23
2019-03-13T03:45:19.260Z,99716.77
2019-03-13T03:47:48.579Z,99713.46
2019-03-13T03:50:17.907Z,99575.23
2019-03-13T03:52:47.510Z,99707.25
2019-03-13T03:55:17.166Z,99692.73
2019-03-13T03:57:46.567Z,99694.91
2019-03-13T04:00:15.954Z,99690.72
2019-03-13T04:02:45.181Z,99694.66
2019-03-13T04:05:14.457Z,99684.83
2019-03-13T04:07:43.843Z,99680.56
2019-03-13T04:10:13.294Z,99680.71
2019-03-13T04:12:42.541Z,99668.30
2019-03-13T04:15:11.829Z,99664.10
2019-03-13T04:17:41.066Z,99659.91
2019-03-13T04:20:10.914Z,99660.46
2019-03-13T04:22:40.190Z,99664.41
2019-03-13T04:25:15.719Z,99651.58
2019-03-13T04:27:44.937Z,99648.67
2019-03-13T04:30:14.248Z,99647.05
2019-03-13T04:32:43.816Z,99637.22
2019-03-13T04:35:13.001Z,99638.65
2019-03-13T04:37:42.190Z,99639.61
2019-03-13T04:40:11.505Z,99625.09
2019-03-13T04:42:40.774Z,99626.05
2019-03-13T04:45:10.005Z,99629.98
2019-03-13T04:47:39.214Z,99618.94
2019-03-13T04:50:08.501Z,99630.20
2019-03-13T04:52:37.750Z,99606.66
2019-03-13T04:55:07.114Z,99607.14
2019-03-13T04:57:36.310Z,99616.23
2019-03-13T05:00:05.837Z,99591.73
2019-03-13T05:02:35.138Z,99599.54
2019-03-13T05:05:04.643Z,99597.36
2019-03-13T05:07:33.838Z,99590.92
2019-03-13T05:10:03.051Z,99589.63
2019-03-13T05:12:32.337Z,99592.69
2019-03-13T05:15:01.930Z,99588.89
2019-03-13T05:17:31.151Z,99586.30
2019-03-13T05:20:00.403Z,99573.00
2019-03-13T05:22:29.693Z,99576.53
2019-03-13T05:24:59.308Z,99573.21
2019-03-13T05:27:28.512Z,99558.61
2019-03-13T05:29:57.756Z,99559.97
2019-03-13T05:32:27.130Z,99557.53
2019-03-13T05:34:56.494Z,99555.02
2019-03-13T05:37:25.702Z,99548.23
2019-03-13T05:39:54.999Z,99544.43
2019-03-13T05:42:24.270Z,99542.33
2019-03-13T05:44:53.669Z,99544.09
2019-03-13T05:47:23.246Z,99541.52
2019-03-13T05:49:52.497Z,99535.47
2019-03-13T05:52:21.742Z,99533.77
2019-03-13T05:54:51.106Z,99530.71
2019-03-13T05:57:20.352Z,99531.59
2019-03-13T05:59:49.544Z,99521.75
2019-03-13T06:02:18.779Z,99522.16
2019-03-13T06:04:47.995Z,99516.18
2019-03-13T06:07:20.295Z,99504.16
2019-03-13T06:09:49.615Z,99490.72
2019-03-13T06:12:18.800Z,99508.78
2019-03-13T06:14:47.977Z,99498.45
2019-03-13T06:17:17.192Z,99489.42
2019-03-13T06:19:48.152Z,99490.72
2019-03-13T06:22:17.452Z,99488.95
2019-03-13T06:24:46.680Z,99484.67
2019-03-13T06:27:15.893Z,99486.03
2019-03-13T06:29:45.123Z,99484.73
2019-03-13T06:32:14.450Z,99471.02
2019-03-13T06:34:43.641Z,99476.59
2019-03-13T06:37:13.062Z,99471.84
2019-03-13T06:39:42.292Z,99482.09
2019-03-13T06:42:11.518Z,99482.91
2019-03-13T06:44:40.698Z,99475.58
2019-03-13T06:47:10.037Z,99465.72
2019-03-13T06:49:39.253Z,99464.84
2019-03-13T06:52:08.431Z,99463.14
2019-03-13T06:54:37.694Z,99462.80
2019-03-13T06:57:06.882Z,99459.00
2019-03-13T06:59:55.066Z,99453.91
2019-03-13T07:02:31.412Z,99445.69
2019-03-13T07:05:34.865Z,99455.67
2019-03-13T07:08:26.120Z,99447.05
2019-03-13T07:11:17.161Z,99446.98
2019-03-13T07:14:01.111Z,99452.08
2019-03-13T07:16:55.201Z,99442.56
2019-03-13T07:19:52.660Z,99440.39
2019-03-13T07:22:53.174Z,99437.06
2019-03-13T07:25:49.683Z,99438.42
2019-03-13T07:28:52.455Z,99434.55
2019-03-13T07:31:42.897Z,99424.30
2019-03-13T07:34:29.967Z,99425.23
2019-03-13T07:37:36.633Z,99414.45
2019-03-13T07:40:25.268Z,99416.02
2019-03-13T07:43:28.822Z,99410.38
2019-03-13T07:46:14.326Z,99412.14
2019-03-13T07:49:01.429Z,99403.17
2019-03-13T07:51:55.771Z,99406.63
2019-03-13T07:54:45.000Z,99404.46
2019-03-13T07:57:22.987Z,99391.56
2019-03-13T08:00:07.807Z,99394.55
2019-03-13T08:02:57.359Z,99391.63
2019-03-13T08:05:45.950Z,99391.15
2019-03-13T08:08:40.030Z,99392.03
2019-03-13T08:11:37.378Z,99385.52
2019-03-13T08:14:27.638Z,99373.02
2019-03-13T08:17:09.197Z,99382.05
2019-03-13T08:20:06.387Z,99376.42
2019-03-13T08:23:06.852Z,99354.08
2019-03-13T08:25:54.108Z,99370.44
2019-03-13T08:28:42.250Z,99358.89
2019-03-13T08:31:21.530Z,99354.61
2019-03-13T08:34:07.273Z,99355.09
2019-03-13T08:37:06.046Z,99353.32
2019-03-13T08:39:47.519Z,99342.59
2019-03-13T08:42:28.534Z,99349.04
2019-03-13T08:45:15.334Z,99340.02
2019-03-13T08:48:12.616Z,99326.29
2019-03-13T08:51:00.902Z,99325.81
2019-03-13T08:54:05.557Z,99170.84
2019-03-13T08:56:53.775Z,99309.98
2019-03-13T08:59:48.119Z,99313.92
2019-03-13T09:02:36.431Z,99311.47
2019-03-13T09:05:13.262Z,99303.44
2019-03-13T09:08:00.621Z,99298.40
2019-03-13T09:11:03.847Z,99295.59
2019-03-13T09:13:59.528Z,99290.55
2019-03-13T09:16:35.324Z,99294.08
2019-03-13T09:19:20.358Z,99285.03
2019-03-13T09:21:58.918Z,99276.41
2019-03-13T09:25:11.202Z,99279.41
2019-03-13T09:27:52.382Z,99278.58
2019-03-13T09:30:39.406Z,99277.83
2019-03-13T09:33:30.444Z,99275.37
2019-03-13T09:36:20.088Z,99268.56
2019-03-13T09:39:11.414Z,99273.31
2019-03-13T09:41:59.559Z,99261.63
2019-03-13T09:44:38.371Z,99265.09
2019-03-13T09:47:32.542Z,99245.38
2019-03-13T09:50:32.699Z,99255.77
2019-03-13T09:53:33.034Z,99249.91
2019-03-13T09:56:13.283Z,99244.33
2019-03-13T09:58:52.369Z,99241.33
2019-03-13T10:01:38.667Z,99235.34
2019-03-13T10:04:25.736Z,99232.83
2019-03-13T10:07:10.980Z,99236.23
2019-03-13T10:09:51.198Z,99223.73
2019-03-13T10:12:45.606Z,99055.28
2019-03-13T10:15:36.716Z,99215.63
2019-03-13T10:18:28.246Z,99211.45
2019-03-13T10:21:17.833Z,99208.81
2019-03-13T10:23:55.079Z,99204.48
2019-03-13T10:26:49.432Z,99200.55
2019-03-13T10:29:40.819Z,99189.86
2019-03-13T10:32:29.155Z,99202.30
2019-03-13T10:35:24.230Z,99199.25
2019-03-13T10:38:19.035Z,99194.15
2019-03-13T10:41:11.424Z,99194.61
2019-03-13T10:43:59.598Z,99195.91
2019-03-13T10:46:53.967Z,99197.20
2019-03-13T10:49:31.622Z,99193.73
2019-03-13T10:52:09.536Z,99190.69
2019-03-13T10:54:56.291Z,99184.70
2019-03-13T10:57:44.571Z,99175.66
2019-03-13T11:00:33.069Z,99177.00
2019-03-13T11:03:21.268Z,99177.53
2019-03-13T11:06:00.374Z,99165.97
2019-03-13T11:08:52.863Z,99169.02
2019-03-13T11:11:35.106Z,99153.95
2019-03-13T11:14:31.850Z,99173.11
2019-03-13T11:17:16.930Z,99168.77
2019-03-13T11:20:04.008Z,99163.72
2019-03-13T11:22:48.339Z,99166.41
2019-03-13T11:25:24.191Z,99150.56
2019-03-13T11:28:18.338Z,99025.50
2019-03-13T11:31:08.650Z,99130.17
2019-03-13T11:34:09.071Z,99156.14
2019-03-13T11:37:00.300Z,99158.36
2019-03-13T11:39:51.681Z,99156.25
2019-03-13T11:42:42.943Z,99148.50
2019-03-13T11:45:23.054Z,99159.35
2019-03-13T11:48:10.964Z,99159.35
2019-03-13T11:51:05.198Z,99158.83
2019-03-13T11:53:56.031Z,99154.55
2019-03-13T11:56:44.306Z,99155.48
2019-03-13T11:59:47.891Z,99154.23
2019-03-13T12:02:48.024Z,99159.82
2019-03-13T12:05:39.329Z,99150.67
2019-03-13T12:08:32.086Z,99150.62
2019-03-13T12:11:32.610Z,99142.86
2019-03-13T12:14:20.996Z,99151.03
2019-03-13T12:17:05.309Z,99151.73
2019-03-13T12:19:53.570Z,99147.40
2019-03-13T12:22:38.962Z,99153.33
2019-03-13T12:25:31.513Z,99144.70
2019-03-13T12:28:19.870Z,99149.45
2019-03-13T12:31:08.018Z,99138.77
2019-03-13T12:33:45.695Z,99140.58
2019-03-13T12:36:23.642Z,99149.21
2019-03-13T12:39:17.342Z,99143.69
2019-03-13T12:42:04.061Z,99133.88
2019-03-13T12:44:43.232Z,99139.09
2019-03-13T12:47:31.421Z,99136.21
2019-03-13T12:50:18.553Z,99141.54
2019-03-13T12:53:25.097Z,99135.60
2019-03-13T12:56:16.271Z,99129.66
2019-03-13T12:59:07.535Z,99123.78
2019-03-13T13:02:14.193Z,99115.30
2019-03-13T13:05:01.196Z,98961.95
2019-03-13T13:07:48.276Z,99128.44
2019-03-13T13:10:36.413Z,99129.38
2019-03-13T13:13:27.938Z,99121.30
2019-03-13T13:16:16.180Z,99120.17
2019-03-13T13:19:02.426Z,99128.50
2019-03-13T13:21:31.656Z,99126.53
2019-03-13T13:24:01.023Z,99126.27
2019-03-13T13:26:30.635Z,99129.38
2019-03-13T13:28:59.839Z,99127.25
2019-03-13T13:31:29.139Z,99122.23
2019-03-13T13:33:58.485Z,99121.45
2019-03-13T13:36:27.691Z,99114.63
2019-03-13T13:38:57.720Z,99118.66
2019-03-13T13:41:27.102Z,99113.58
2019-03-13T13:43:57.761Z,99125.31
2019-03-13T13:46:29.471Z,99119.00
2019-03-13T13:48:59.238Z,99115.89
2019-03-13T13:51:28.613Z,99114.98
2019-03-13T13:53:57.829Z,99123.03
2019-03-13T13:56:27.067Z,99126.32
2019-03-13T13:58:56.362Z,99128.17
2019-03-13T14:01:25.716Z,99130.86
2019-03-13T14:03:55.214Z,99134.00
2019-03-13T14:06:24.533Z,99131.05
2019-03-13T14:08:53.726Z,99145.09
2019-03-13T14:11:22.964Z,99139.59
2019-03-13T14:13:52.299Z,99136.77
2019-03-13T14:16:24.563Z,99142.97
2019-03-13T14:18:54.360Z,99134.45
2019-03-13T14:21:23.603Z,99139.27
2019-03-13T14:23:54.714Z,99134.50
2019-03-13T14:26:23.930Z,99130.28
2019-03-13T14:28:53.158Z,99132.30
2019-03-13T14:31:22.442Z,99133.20
2019-03-13T14:33:51.975Z,99127.19
2019-03-13T14:36:21.140Z,99127.72
2019-03-13T14:38:50.332Z,99004.25
2019-03-13T14:41:19.672Z,99124.57
2019-03-13T14:43:48.891Z,99121.66
2019-03-13T14:46:18.096Z,99129.03
2019-03-13T14:48:47.351Z,99134.14
2019-03-13T14:51:16.572Z,99144.94
2019-03-13T14:53:45.829Z,99149.92
2019-03-13T14:56:15.126Z,99142.40
2019-03-13T14:58:44.373Z,99148.89
2019-03-13T15:01:13.610Z,99142.82
2019-03-13T15:03:42.895Z,99148.39
2019-03-13T15:06:12.077Z,99152.70
2019-03-13T15:08:41.293Z,99148.16
2019-03-13T15:11:10.539Z,99156.88
2019-03-13T15:13:39.722Z,99164.60
2019-03-13T15:16:08.929Z,99155.08
2019-03-13T15:18:38.288Z,99150.88
2019-03-13T15:21:07.502Z,99155.93
2019-03-13T15:23:36.719Z,99148.69
2019-03-13T15:26:06.191Z,99151.68
2019-03-13T15:28:35.457Z,99144.27
2019-03-13T15:31:05.140Z,99146.83
2019-03-13T15:33:34.869Z,99151.84
2019-03-13T15:36:04.071Z,99157.13
2019-03-13T15:38:33.093Z,99143.30
2019-03-13T15:41:02.340Z,99149.17
2019-03-13T15:43:32.232Z,99143.42
2019-03-13T15:46:01.464Z,99141.48
2019-03-13T15:48:33.835Z,99143.94
2019-03-13T15:51:03.031Z,99142.30
2019-03-13T15:53:34.359Z,99153.12
2019-03-13T15:56:05.941Z,99147.64
2019-03-13T15:58:35.174Z,99153.63
2019-03-13T16:01:04.527Z,99157.56
2019-03-13T16:03:33.790Z,99164.45
2019-03-13T16:06:03.092Z,99169.33
2019-03-13T16:08:32.283Z,99157.53
2019-03-13T16:11:01.737Z,99160.34
2019-03-13T16:13:30.927Z,99160.17
2019-03-13T16:16:01.691Z,99154.86
2019-03-13T16:18:30.945Z,99166.88
2019-03-13T16:21:00.544Z,99163.77
2019-03-13T16:23:29.742Z,99165.86
2019-03-13T16:25:59.335Z,99169.25
2019-03-13T16:28:28.762Z,99172.59
2019-03-13T16:30:57.900Z,99175.06
2019-03-13T16:33:27.130Z,99175.84
2019-03-13T16:35:56.433Z,99171.41
2019-03-13T16:38:25.705Z,99173.55
2019-03-13T16:40:57.492Z,99170.03
2019-03-13T16:43:26.760Z,99169.94
2019-03-13T16:45:56.026Z,99171.56
2019-03-13T16:48:25.397Z,99163.55
2019-03-13T16:50:54.629Z,99171.00
2019-03-13T16:53:23.964Z,99167.06
2019-03-13T16:55:53.231Z,99176.47
2019-03-13T16:58:22.519Z,99189.70
2019-03-13T17:00:51.717Z,99186.94
2019-03-13T17:03:20.984Z,99186.85
2019-03-13T17:05:50.176Z,99185.87
2019-03-13T17:08:19.489Z,99175.80
2019-03-13T17:10:48.728Z,99182.14
2019-03-13T17:13:17.947Z,99188.52
2019-03-13T17:15:47.525Z,99189.73
2019-03-13T17:18:17.848Z,99200.09
2019-03-13T17:20:47.048Z,99191.44
2019-03-13T17:23:16.280Z,99190.05
2019-03-13T17:25:45.519Z,99183.63
2019-03-13T17:28:14.995Z,99193.10
2019-03-13T17:30:44.252Z,99187.05
2019-03-13T17:33:13.591Z,99184.87
2019-03-13T17:35:42.798Z,99188.80
2019-03-13T17:38:12.035Z,99188.80
2019-03-13T17:40:41.420Z,99188.34
2019-03-13T17:43:12.953Z,99194.03
2019-03-13T17:45:42.146Z,99191.91
2019-03-13T17:48:11.412Z,99190.97
2019-03-13T17:50:40.627Z,99192.27
2019-03-13T17:53:09.869Z,99198.70
2019-03-13T17:55:39.167Z,99193.56
2019-03-13T17:58:08.405Z,99187.97
2019-03-13T18:00:44.569Z,99202.63
2019-03-13T18:03:13.830Z,99197.41
2019-03-13T18:05:43.314Z,99201.66
2019-03-13T18:08:12.539Z,99202.08
2019-03-13T18:10:41.901Z,99196.02
2019-03-13T18:13:11.467Z,99198.14
2019-03-13T18:15:40.774Z,99194.26
2019-03-13T18:18:10.126Z,99189.03
2019-03-13T18:20:39.974Z,99194.58
2019-03-13T18:23:10.037Z,99183.71
2019-03-13T18:25:39.169Z,99188.84
2019-03-13T18:28:08.467Z,99187.04
2019-03-13T18:30:37.945Z,99176.73
2019-03-13T18:33:07.249Z,99181.91
2019-03-13T18:35:36.513Z,99186.63
2019-03-13T18:38:05.781Z,99181.39
2019-03-13T18:40:34.977Z,99183.57
2019-03-13T18:43:04.164Z,99160.21
2019-03-13T18:45:34.912Z,99184.82
2019-03-13T18:48:04.119Z,99175.30
2019-03-13T18:50:33.316Z,99185.60
2019-03-13T18:53:02.618Z,99182.19
2019-03-13T18:55:31.971Z,99185.19
2019-03-13T18:58:01.216Z,99184.77
2019-03-13T19:00:31.073Z,99179.17
2019-03-13T19:03:00.920Z,99177.00
2019-03-13T19:05:30.145Z,99177.47
2019-03-13T19:08:02.995Z,99178.67
2019-03-13T19:10:32.444Z,99175.61
2019-03-13T19:13:01.926Z,99179.03
2019-03-13T19:15:31.575Z,99172.56
2019-03-13T19:18:01.401Z,99176.91
2019-03-13T19:20:31.349Z,99182.13
2019-03-13T19:23:00.724Z,99168.77
2019-03-13T19:25:30.032Z,99163.59
2019-03-13T19:27:59.814Z,99176.55
2019-03-13T19:30:30.426Z,99167.48
2019-03-13T19:33:00.285Z,99172.24
2019-03-13T19:35:29.672Z,99167.02
2019-03-13T19:37:59.400Z,99173.48
2019-03-13T19:40:28.835Z,99169.09
2019-03-13T19:42:58.205Z,99172.88
2019-03-13T19:45:45.909Z,99176.72
2019-03-13T19:48:15.196Z,99167.10
2019-03-13T19:50:44.569Z,99174.41
2019-03-13T19:53:13.977Z,99163.13
2019-03-13T19:55:43.193Z,99170.42
2019-03-13T19:58:12.424Z,99060.39
2019-03-13T20:00:41.753Z,99169.86
2019-03-13T20:03:11.029Z,99166.34
2019-03-13T20:05:45.694Z,99165.00
2019-03-13T20:08:13.631Z,99167.18
2019-03-13T20:10:42.268Z,99162.47
2019-03-13T20:13:11.541Z,99168.94
2019-03-13T20:15:40.976Z,99165.56
2019-03-13T20:18:10.482Z,99163.02
2019-03-13T20:20:39.807Z,99161.00
2019-03-13T20:23:09.119Z,99149.34
2019-03-13T20:25:38.383Z,99162.75
2019-03-13T20:28:07.953Z,99155.86
2019-03-13T20:30:37.520Z,99150.73
2019-03-13T20:33:06.761Z,99150.32
2019-03-13T20:35:37.006Z,99155.96
2019-03-13T20:38:06.309Z,99156.84
2019-03-13T20:40:35.536Z,99150.37
2019-03-13T20:43:04.771Z,99157.25
2019-03-13T20:45:34.225Z,99154.20
2019-03-13T20:48:03.922Z,99159.43
2019-03-13T20:50:37.388Z,99152.49
2019-03-13T20:53:04.291Z,99154.67
2019-03-13T20:55:33.775Z,99161.19
2019-03-13T20:58:03.120Z,99162.53
2019-03-13T21:00:34.666Z,99162.11
2019-03-13T21:03:04.343Z,99171.64
2019-03-13T21:05:33.962Z,99164.75
2019-03-13T21:08:03.274Z,99168.22
2019-03-13T21:10:32.483Z,99155.73
2019-03-13T21:13:01.723Z,99155.83
2019-03-13T21:15:31.098Z,99145.93
2019-03-13T21:18:00.605Z,99159.34
2019-03-13T21:20:29.822Z,99148.15
2019-03-13T21:22:59.273Z,99144.73
2019-03-13T21:25:28.541Z,99150.38
2019-03-13T21:27:58.014Z,99148.20
2019-03-13T21:30:27.292Z,99150.00
2019-03-13T21:32:56.481Z,99137.42
2019-03-13T21:35:25.887Z,99139.23
2019-03-13T21:37:55.122Z,99143.58
2019-03-13T21:40:24.453Z,99138.34
2019-03-13T21:42:54.817Z,99141.40
2019-03-13T21:45:24.575Z,99136.63
2019-03-13T21:47:53.832Z,99138.34
2019-03-13T21:50:23.871Z,99133.63
2019-03-13T21:52:53.151Z,99132.29
2019-03-13T21:55:22.397Z,99135.34
2019-03-13T21:57:52.491Z,99131.83
2019-03-13T22:00:23.485Z,99132.29
2019-03-13T22:02:52.736Z,99133.17
2019-03-13T22:05:26.098Z,99132.70
2019-03-13T22:07:53.389Z,99121.98
2019-03-13T22:10:22.693Z,99122.39
2019-03-13T22:12:52.190Z,99124.11
2019-03-13T22:15:21.545Z,99128.91
2019-03-13T22:17:51.258Z,99127.20
2019-03-13T22:20:20.634Z,99121.56
2019-03-13T22:22:49.901Z,99119.39
2019-03-13T22:25:19.127Z,99118.55
2019-03-13T22:27:48.359Z,99118.51
2019-03-13T22:30:19.346Z,99115.50
2019-03-13T22:32:48.576Z,99118.09
2019-03-13T22:35:17.775Z,99115.97
2019-03-13T22:37:47.480Z,99103.89
2019-03-13T22:40:16.820Z,99105.61
2019-03-13T22:42:46.089Z,99102.64
2019-03-13T22:45:15.419Z,99103.98
2019-03-13T22:47:44.704Z,99097.09
2019-03-13T22:50:15.825Z,99099.31
2019-03-13T22:52:45.104Z,99102.82
2019-03-13T22:55:14.423Z,99105.41
2019-03-13T22:57:43.738Z,99101.57
2019-03-13T23:00:27.702Z,99088.66
2019-03-13T23:02:57.024Z,99089.55
2019-03-13T23:05:26.420Z,99085.28
2019-03-13T23:07:55.708Z,99088.38
2019-03-13T23:10:31.728Z,99085.83
2019-03-13T23:13:00.946Z,99086.33
2019-03-13T23:15:30.131Z,99087.21
2019-03-13T23:17:59.658Z,99084.20
2019-03-13T23:20:28.817Z,99081.20
2019-03-13T23:22:58.090Z,99078.65
2019-03-13T23:25:27.279Z,99073.51
2019-03-13T23:27:56.496Z,99061.02
2019-03-13T23:30:25.740Z,99069.25
2019-03-13T23:32:54.927Z,99056.75
2019-03-13T23:35:24.180Z,99066.33
2019-03-13T23:37:53.600Z,99056.42
2019-03-13T23:40:22.840Z,99049.94
2019-03-13T23:42:52.051Z,99046.47
2019-03-13T23:45:21.259Z,99047.39
2019-03-13T23:47:50.485Z,99053.45
2019-03-13T23:50:19.714Z,99050.45
2019-03-13T23:52:48.919Z,99056.05
2019-03-13T23:55:18.119Z,99039.63
2019-03-13T23:57:47.359Z,99033.98
